Flight Track Log - Related Links

Times and Time Zones

All times are in EST time to prevent confusion due to time zone crossing. See the SKW6195 flight status page for this flight to view local times or setup timezone preferences in your user account.

Time Position Orientation Groundspeed Altitude Reporting Facility
EST Latitude Longitude Course Direction KTS MPH feet Rate Location/Type
Sat 01:42:04 PM 39.8833 -104.5667 317° Northwest 172 198 7,700  Level Denver TRACON
Sat 01:43:04 PM 39.9000 -104.4833 75° East 245 282 9,100 1,800 Climbing Denver TRACON
Sat 01:44:00 PM 40.1726 -105.1337 323° Northwest  Level Estimated
Sat 01:44:04 PM 39.9500 -104.4000 52° Northeast 304 350 11,300  Level Denver TRACON
Sat 01:45:00 PM 40.2500 -105.2495 330° Northwest  Level Estimated
Sat 01:45:38 PM 40.0644 -104.4472 342° North 345 397 13,600  Level Denver Center
Sat 01:46:00 PM 40.3273 -105.3656 323° Northwest  Level Estimated
Sat 01:46:41 PM 40.1658 -104.5364 326° Northwest 360 414 16,800  Level Denver Center
Sat 01:47:00 PM 40.4045 -105.4819 317° Northwest  Level Estimated
Sat 01:47:43 PM 40.2447 -104.6050 326° Northwest 345 397 18,600  Level Denver Center
Sat 01:48:45 PM 40.3339 -104.6825 326° Northwest 358 412 20,600 1,756 Climbing Denver Center
Sat 01:49:46 PM 40.4147 -104.7569 325° Northwest 357 411 22,200 1,463 Climbing Denver Center
Sat 01:50:48 PM 40.5114 -104.8403 327° Northwest 383 441 23,600 1,403 Climbing Denver Center
Sat 01:51:50 PM 40.5992 -104.9211 325° Northwest 381 438 25,100 1,161 Climbing Denver Center
Sat 01:52:52 PM 40.6842 -104.9969 326° Northwest 371 427 26,000 774 Climbing Denver Center
Sat 01:53:54 PM 40.7553 -105.0594 326° Northwest 382 440 26,700 1,065 Climbing Denver Center
Sat 01:54:56 PM 40.8558 -105.1717 320° Northwest 394 453 28,200 1,306 Climbing Denver Center
Sat 01:55:58 PM 40.9411 -105.2658 320° Northwest 402 463 29,400 1,258 Climbing Denver Center
Sat 01:57:00 PM 41.0308 -105.3653 320° Northwest 398 458 30,800 1,403 Climbing Denver Center
Sat 01:58:02 PM 41.1269 -105.4683 321° Northwest 398 458 32,300 1,210 Climbing Denver Center
Sat 01:59:04 PM 41.2125 -105.5489 325° Northwest 396 456 33,300 878 Climbing Denver Center
Sat 02:00:05 PM 41.3139 -105.6431 325° Northwest 398 458 34,100 634 Climbing Denver Center
Sat 02:01:07 PM 41.3997 -105.7306 323° Northwest 403 464 34,600 532 Climbing Denver Center
Sat 02:02:09 PM 41.4861 -105.8214 322° Northwest 409 471 35,200 726 Climbing Denver Center
Sat 02:03:11 PM 41.5889 -105.9250 323° Northwest 414 476 36,100 774 Climbing Denver Center
Sat 02:04:13 PM 41.6525 -106.0367 307° West 389 448 36,800 732 Climbing Denver Center
Sat 02:05:14 PM 41.7067 -106.1506 303° West 382 440 37,600 581 Climbing Denver Center
Sat 02:06:17 PM 41.7692 -106.2828 302° West 376 433 38,000 192 Climbing Denver Center
Sat 02:07:19 PM 41.8319 -106.4175 302° West 380 437 38,000  Level Denver Center
Sat 02:08:20 PM 41.8953 -106.5489 303° West 392 451 38,000  Level Denver Center
Sat 02:09:22 PM 41.9517 -106.6703 302° West 399 459 38,000  Level Denver Center
Sat 02:10:24 PM 42.0094 -106.7919 303° West 403 464 38,000  Level Denver Center
Sat 02:11:26 PM 42.0764 -106.9358 302° West 407 468 38,000  Level Denver Center
Sat 02:12:28 PM 42.1311 -107.0589 301° West 405 466 38,000  Level Denver Center
Sat 02:13:30 PM 42.1989 -107.2050 302° West 411 473 38,000  Level Denver Center
Sat 02:14:31 PM 42.2575 -107.3303 302° West 414 476 38,000  Level Denver Center
Sat 02:15:33 PM 42.3256 -107.4803 302° West 418 481 38,000  Level Denver Center
Sat 02:16:35 PM 42.3856 -107.6103 302° West 424 488 38,000  Level Denver Center
Sat 02:17:37 PM 42.4522 -107.7600 301° West 421 484 38,000  Level Denver Center
Sat 02:19:04 PM 42.5408 -107.9575 301° West 427 491 38,000  Level Salt Lake Center
Sat 02:20:06 PM 42.6008 -108.0900 302° West 430 495 38,000  Level Salt Lake Center
Sat 02:21:08 PM 42.6692 -108.2456 301° West 431 496 38,000  Level Salt Lake Center
Sat 02:22:10 PM 42.7300 -108.3808 302° West 438 504 38,000  Level Salt Lake Center
Sat 02:23:12 PM 42.7997 -108.5406 301° West 440 506 38,000  Level Salt Lake Center
Sat 02:24:14 PM 42.8603 -108.6778 301° West 441 507 38,000  Level Salt Lake Center
Sat 02:25:16 PM 42.9308 -108.8375 301° West 442 509 38,000  Level Salt Lake Center
Sat 02:26:18 PM 42.9872 -108.9711 300° West 449 517 38,000  Level Salt Lake Center
Sat 02:27:20 PM 43.0644 -109.1461 301° West 449 517 38,000  Level Salt Lake Center
Sat 02:28:22 PM 43.1281 -109.2947 300° West 451 519 38,000  Level Salt Lake Center
Sat 02:29:23 PM 43.1914 -109.4433 300° West 452 520 38,000  Level Salt Lake Center
Sat 02:30:25 PM 43.2564 -109.5931 301° West 455 524 38,000  Level Salt Lake Center
Sat 02:31:27 PM 43.3194 -109.7433 300° West 455 524 38,000  Level Salt Lake Center
Sat 02:32:29 PM 43.3875 -109.9003 301° West 451 519 38,000  Level Salt Lake Center
Sat 02:33:31 PM 43.4578 -110.0681 300° West 454 522 38,000  Level Salt Lake Center
Sat 02:34:33 PM 43.5178 -110.2094 300° West 455 524 38,000  Level Salt Lake Center
Sat 02:35:35 PM 43.5872 -110.3794 299° West 455 524 38,000  Level Salt Lake Center
Sat 02:36:37 PM 43.6467 -110.5239 300° West 455 524 38,000  Level Salt Lake Center
Sat 02:37:38 PM 43.7086 -110.6686 301° West 460 529 38,000  Level Salt Lake Center
Sat 02:38:40 PM 43.7767 -110.8408 299° West 457 526 38,000  Level Salt Lake Center
Sat 02:39:42 PM 43.8353 -110.9861 299° West 453 521 38,000  Level Salt Lake Center
Sat 02:40:44 PM 43.9039 -111.1550 299° West 451 519 38,000  Level Salt Lake Center
Sat 02:41:46 PM 43.9603 -111.2961 299° West 443 510 38,000  Level Salt Lake Center
Sat 02:42:47 PM 44.0261 -111.4611 299° West 436 502 38,000  Level Salt Lake Center
Sat 02:43:49 PM 44.0828 -111.6017 299° West 435 501 38,000  Level Salt Lake Center
Sat 02:44:51 PM 44.1375 -111.7439 298° West 435 501 38,000  Level Salt Lake Center
Sat 02:45:53 PM 44.2031 -111.9097 299° West 436 502 38,000  Level Salt Lake Center
Sat 02:46:54 PM 44.2586 -112.0514 299° West 434 499 38,000  Level Salt Lake Center
Sat 02:47:56 PM 44.3225 -112.2161 299° West 432 497 38,000  Level Salt Lake Center
Sat 02:48:58 PM 44.3775 -112.3581 299° West 433 498 38,000  Level Salt Lake Center
Sat 02:50:00 PM 44.4306 -112.4992 298° West 430 495 38,000  Level Salt Lake Center
Sat 02:51:01 PM 44.4936 -112.6639 298° West 430 495 38,000  Level Salt Lake Center
Sat 02:52:03 PM 44.5469 -112.8047 298° West 428 493 38,000  Level Salt Lake Center
Sat 02:53:05 PM 44.6106 -112.9714 298° West 432 497 38,000  Level Salt Lake Center
Sat 02:54:07 PM 44.6639 -113.1150 298° West 432 497 38,000  Level Salt Lake Center
Sat 02:55:08 PM 44.7258 -113.2836 297° West 435 501 38,000  Level Salt Lake Center
Sat 02:56:10 PM 44.7808 -113.4272 298° West 436 502 38,000  Level Salt Lake Center
Sat 02:57:12 PM 44.8331 -113.5731 297° West 436 502 38,000  Level Salt Lake Center
Sat 02:58:13 PM 44.8989 -113.7417 299° West 439 505 38,000  Level Salt Lake Center
Sat 02:59:15 PM 44.9519 -113.8878 297° West 438 504 38,000  Level Salt Lake Center
Sat 03:00:17 PM 45.0131 -114.0589 297° West 437 503 38,000  Level Salt Lake Center
Sat 03:01:18 PM 45.0822 -114.1964 305° West 432 497 38,000  Level Salt Lake Center
Sat 03:02:20 PM 45.1528 -114.3317 307° West 429 494 38,000  Level Salt Lake Center
Sat 03:03:22 PM 45.2239 -114.4661 307° West 429 494 38,000  Level Salt Lake Center
Sat 03:04:23 PM 45.2931 -114.6019 306° West 427 491 38,000  Level Salt Lake Center
Sat 03:05:25 PM 45.3617 -114.7342 306° West 420 483 38,000  Level Salt Lake Center
Sat 03:06:26 PM 45.4444 -114.8942 306° West 416 479 38,000  Level Seattle Center
Sat 03:06:27 PM 45.4444 -114.8942 306° West 420 483 38,000  Level Salt Lake Center
Sat 03:07:28 PM 45.5108 -115.0236 306° West 409 471 38,000  Level Seattle Center
Sat 03:08:29 PM 45.5769 -115.1542 306° West 407 468 38,000  Level Seattle Center
Sat 03:09:30 PM 45.6433 -115.2856 306° West 409 471 38,000  Level Seattle Center
Sat 03:10:31 PM 45.7097 -115.4167 306° West 410 472 38,000  Level Seattle Center
Sat 03:11:32 PM 45.7744 -115.5458 306° West 408 470 38,000  Level Seattle Center
Sat 03:12:33 PM 45.8400 -115.6783 305° West 408 470 38,000  Level Seattle Center
Sat 03:13:34 PM 45.9069 -115.8106 306° West 410 472 38,000  Level Seattle Center
Sat 03:14:35 PM 45.9731 -115.9450 305° West 411 473 38,000  Level Seattle Center
Sat 03:15:36 PM 46.0411 -116.0761 307° West 410 472 38,000  Level Seattle Center
Sat 03:16:37 PM 46.1114 -116.2019 309° West 407 468 38,000  Level Seattle Center
Sat 03:17:38 PM 46.1825 -116.3292 309° West 408 470 38,000  Level Seattle Center
Sat 03:18:39 PM 46.2656 -116.4836 308° West 408 470 38,000  Level Seattle Center
Sat 03:19:41 PM 46.3342 -116.6106 308° West 403 464 38,000  Level Seattle Center
Sat 03:20:42 PM 46.4036 -116.7403 308° West 406 467 38,000  Level Seattle Center
Sat 03:21:43 PM 46.4722 -116.8664 308° West 402 463 38,000  Level Seattle Center
Sat 03:22:44 PM 46.5414 -116.9931 308° West 401 461 38,000  Level Seattle Center
Sat 03:23:45 PM 46.6094 -117.1217 308° West 402 463 38,000  Level Seattle Center
Sat 03:24:46 PM 46.6775 -117.2506 308° West 402 463 38,000  Level Seattle Center
Sat 03:25:47 PM 46.7458 -117.3797 308° West 402 463 38,000  Level Seattle Center
Sat 03:26:48 PM 46.8142 -117.5106 307° West 404 465 38,000  Level Seattle Center
Sat 03:27:49 PM 46.8819 -117.6406 307° West 403 464 38,000  Level Seattle Center
Sat 03:28:50 PM 46.9483 -117.7692 307° West 398 458 38,000  Level Seattle Center
Sat 03:29:51 PM 47.0156 -117.8986 307° West 397 457 38,000  Level Seattle Center
Sat 03:30:52 PM 47.0831 -118.0286 307° West 401 461 38,000  Level Seattle Center
Sat 03:31:53 PM 47.1492 -118.1578 307° West 397 457 38,000  Level Seattle Center
Sat 03:32:54 PM 47.2292 -118.3142 307° West 399 459 38,000  Level Seattle Center
Sat 03:33:55 PM 47.2950 -118.4436 307° West 396 456 38,000  Level Seattle Center
Sat 03:34:56 PM 47.3608 -118.5742 307° West 396 456 38,000  Level Seattle Center
Sat 03:35:57 PM 47.4267 -118.7042 307° West 397 457 38,000  Level Seattle Center
Sat 03:36:58 PM 47.4917 -118.8350 306° West 395 455 38,000  Level Seattle Center
Sat 03:37:59 PM 47.5564 -118.9644 307° West 392 451 38,000  Level Seattle Center
Sat 03:39:00 PM 47.6200 -119.0942 306° West 391 450 38,000  Level Seattle Center
Sat 03:40:01 PM 47.6839 -119.2233 306° West 389 448 38,000  Level Seattle Center
Sat 03:41:02 PM 47.7472 -119.3517 306° West 387 445 38,000  Level Seattle Center
Sat 03:42:03 PM 47.8111 -119.4819 306° West 389 448 38,000  Level Seattle Center
Sat 03:43:04 PM 47.8739 -119.6117 306° West 387 445 38,000  Level Seattle Center
Sat 03:44:05 PM 47.9378 -119.7425 306° West 389 448 38,000  Level Seattle Center
Sat 03:45:06 PM 48.0003 -119.8722 306° West 387 445 38,000  Level Seattle Center
Sat 03:46:07 PM 48.0633 -120.0028 306° West 388 447 38,000  Level Seattle Center
Sat 03:47:08 PM 48.1344 -120.1683 303° West 397 457 38,000  Level Seattle Center
Sat 03:48:09 PM 48.1636 -120.3286 285° West 403 464 38,000  Level Seattle Center
Sat 03:49:10 PM 48.1936 -120.4917 285° West 409 471 38,000  Level Seattle Center
Sat 03:50:11 PM 48.2317 -120.6514 290° West 407 468 38,000  Level Seattle Center
Sat 03:51:12 PM 48.2761 -120.8089 293° West 410 472 38,000  Level Seattle Center
Sat 03:52:13 PM 48.3158 -120.9575 292° West 410 472 38,000 -1,328 Level Seattle Center
Sat 03:53:14 PM 48.3561 -121.1161 291° West 408 470 35,300 -3,049 Descending Seattle Center
Sat 03:54:15 PM 48.4086 -121.3092 292° West 416 479 31,800 -3,295 Descending Seattle Center
Sat 03:55:16 PM 48.4500 -121.4731 291° West 420 483 28,600 -3,148 Descending Seattle Center
Sat 03:56:17 PM 48.4936 -121.6403 292° West 429 494 25,400 -3,148 Descending Seattle Center
Sat 03:57:18 PM 48.5356 -121.8061 291° West 427 491 22,200 -3,197 Descending Seattle Center
Sat 03:58:19 PM 48.5761 -121.9644 291° West 412 474 18,900 -3,049 Descending Seattle Center
Sat 03:59:20 PM 48.6144 -122.1167 291° West 397 457 16,000 -3,196 Descending Seattle Center
Sat 03:59:51 PM 48.6333 -122.2167 286° West 380 437 14,000 -2,637 Descending Vancouver Center
Sat 04:00:51 PM 48.6500 -122.3333 282° West 360 414 12,000 -1,000 Descending Vancouver Center
Sat 04:01:51 PM 48.6833 -122.4667 291° West 300 345 12,000 -400 Level Vancouver Center
Sat 04:02:51 PM 48.7167 -122.5667 297° West 280 322 11,200 -1,000 Descending Vancouver Center
Sat 04:03:51 PM 48.7667 -122.6333 319° Northwest 280 322 10,000 -1,200 Descending Vancouver Center
Sat 04:04:51 PM 48.8167 -122.7333 307° West 280 322 8,800 -1,000 Descending Vancouver Center
Sat 04:05:51 PM 48.8667 -122.8333 307° West 280 322 8,000 -400 Descending Vancouver Center
Sat 04:06:51 PM 48.9167 -122.8833 327° Northwest 270 311 8,000 -600 Level Vancouver Center
Sat 04:07:51 PM 48.9833 -122.9167 342° North 270 311 6,800 -1,500 Descending Vancouver Center
Sat 04:08:51 PM 49.0667 -122.9000 North 270 311 5,000 -1,700 Descending Vancouver Center
Sat 04:09:51 PM 49.1500 -122.9000 360° North 270 311 3,400 -1,300 Descending Vancouver Center
Sat 04:10:51 PM 49.1667 -122.9833 287° West 220 253 2,400 -1,050 Descending Vancouver Center
Sat 04:11:51 PM 49.1667 -123.0833 270° West 190 219 1,300 -950 Descending Vancouver Center
Sat 04:12:51 PM 49.1833 -123.1333 297° West 140 161 500 -800 Descending Vancouver Center

Login

Don't have an account? Register now (free) for customized features, flight alerts, and more!